Ages Brookside, Kentucky
Current Conditions -  °F | °C
As of 7:55 PM on Wednesday 17 Dec 2014 (Local Time) from KI35 Reporting Station
Clear Clear  
Wind Chill: 29°   Ceiling: Unl
Heat Index: 34°   Visibility: 10mi
Dew Point: 28°   Wind: 6mph
Humidity: 81%   Direction: 290°WNW
Pressure: 30.2"   Gusts: NA
Location:  36.86°N, 83.25°W
Report Text: KI35 180055Z AUTO 29005KT 10SM CLR 01/M02 A3020 RMK AO1
Loading
Personal Weather Stations






























Interactive Weather Map New forecast layout! Learn more

10-Day Weather Forecast

Advertisements
Track Severe Weather on mobile